Terminal Aerodrome Forecast
Issued by NWS

Home | Current Version | Previous Version | Text Only | Print | Product List | Glossary On
Versions: 1 2 3 4 5 6 7 8 9 10 11 12 13 14
000
FTUS46 KMTR 220534
TAFSTS
TAF
KSTS 220534Z 2206/2306 VRB03KT P6SM SCT200
     FM221200 VRB02KT P6SM FEW015 SCT020
      TEMPO 2212/2216 FEW012 BKN020
     FM221700 35003KT P6SM FEW030
     FM222100 22007KT P6SM SKC
     FM230400 VRB03KT P6SM SKC=

USA.gov is the U.S. government's official web portal to all federal, state and local government web resources and services.